sensor_id;sensor_type;location;lat;lon;timestamp;pressure;altitude;pressure_sealevel;temperature;humidity
54172;BME280;40076;52.354;4.970;2022-08-25T00:01:57;101792.38;;;24.76;91.57
54172;BME280;40076;52.354;4.970;2022-08-25T00:04:25;101788.03;;;24.75;91.23
54172;BME280;40076;52.354;4.970;2022-08-25T00:06:51;101780.13;;;24.73;91.64
54172;BME280;40076;52.354;4.970;2022-08-25T00:09:20;101790.78;;;24.71;91.51
54172;BME280;40076;52.354;4.970;2022-08-25T00:11:47;101776.19;;;24.71;91.56
54172;BME280;40076;52.354;4.970;2022-08-25T00:14:17;101782.91;;;24.70;91.38
54172;BME280;40076;52.354;4.970;2022-08-25T00:16:43;101781.69;;;24.67;91.28
54172;BME280;40076;52.354;4.970;2022-08-25T00:19:15;101777.34;;;24.66;91.28
54172;BME280;40076;52.354;4.970;2022-08-25T00:21:41;101776.97;;;24.64;91.12
54172;BME280;40076;52.354;4.970;2022-08-25T00:24:08;101775.38;;;24.63;91.30
54172;BME280;40076;52.354;4.970;2022-08-25T00:26:36;101777.75;;;24.61;91.25
54172;BME280;40076;52.354;4.970;2022-08-25T00:29:02;101771.81;;;24.59;91.14
54172;BME280;40076;52.354;4.970;2022-08-25T00:31:28;101770.59;;;24.56;91.24
54172;BME280;40076;52.354;4.970;2022-08-25T00:33:54;101775.75;;;24.54;91.25
54172;BME280;40076;52.354;4.970;2022-08-25T00:36:19;101775.75;;;24.54;91.36
54172;BME280;40076;52.354;4.970;2022-08-25T00:38:46;101767.84;;;24.49;91.58
54172;BME280;40076;52.354;4.970;2022-08-25T00:41:14;101767.47;;;24.47;91.41
54172;BME280;40076;52.354;4.970;2022-08-25T00:46:06;101757.97;;;24.45;91.43
54172;BME280;40076;52.354;4.970;2022-08-25T00:48:32;101766.63;;;24.43;91.56
54172;BME280;40076;52.354;4.970;2022-08-25T00:50:58;101759.94;;;24.41;91.64
54172;BME280;40076;52.354;4.970;2022-08-25T00:53:24;101757.94;;;24.41;91.65
54172;BME280;40076;52.354;4.970;2022-08-25T00:55:49;101768.22;;;24.41;91.70
54172;BME280;40076;52.354;4.970;2022-08-25T00:58:19;101757.16;;;24.37;92.18
54172;BME280;40076;52.354;4.970;2022-08-25T01:00:49;101757.16;;;24.37;92.15
54172;BME280;40076;52.354;4.970;2022-08-25T01:03:16;101763.84;;;24.36;92.40
54172;BME280;40076;52.354;4.970;2022-08-25T01:05:43;101762.28;;;24.35;92.94
54172;BME280;40076;52.354;4.970;2022-08-25T01:08:09;101753.63;;;24.33;92.59
54172;BME280;40076;52.354;4.970;2022-08-25T01:10:37;101754.38;;;24.34;92.96
54172;BME280;40076;52.354;4.970;2022-08-25T01:13:31;101752.81;;;24.33;93.63
54172;BME280;40076;52.354;4.970;2022-08-25T01:15:55;101755.56;;;24.33;93.68
54172;BME280;40076;52.354;4.970;2022-08-25T01:18:21;101750.44;;;24.31;94.12
54172;BME280;40076;52.354;4.970;2022-08-25T01:20:55;101750.44;;;24.31;94.45
54172;BME280;40076;52.354;4.970;2022-08-25T01:23:21;101750.84;;;24.33;94.39
54172;BME280;40076;52.354;4.970;2022-08-25T01:25:52;101744.91;;;24.31;94.78
54172;BME280;40076;52.354;4.970;2022-08-25T01:28:21;101745.72;;;24.32;94.50
54172;BME280;40076;52.354;4.970;2022-08-25T01:30:47;101749.25;;;24.32;94.14
54172;BME280;40076;52.354;4.970;2022-08-25T01:33:12;101751.22;;;24.32;93.31
54172;BME280;40076;52.354;4.970;2022-08-25T01:35:39;101746.88;;;24.31;92.38
54172;BME280;40076;52.354;4.970;2022-08-25T01:38:07;101748.84;;;24.30;91.50
54172;BME280;40076;52.354;4.970;2022-08-25T01:40:34;101745.31;;;24.30;91.15
54172;BME280;40076;52.354;4.970;2022-08-25T01:45:32;101746.88;;;24.27;90.29
54172;BME280;40076;52.354;4.970;2022-08-25T01:47:57;101748.84;;;24.27;89.61
54172;BME280;40076;52.354;4.970;2022-08-25T01:50:23;101739.00;;;24.26;88.97
54172;BME280;40076;52.354;4.970;2022-08-25T01:55:30;101736.19;;;24.22;87.07
54172;BME280;40076;52.354;4.970;2022-08-25T01:58:16;101729.44;;;24.19;86.54
54172;BME280;40076;52.354;4.970;2022-08-25T02:00:45;101726.69;;;24.16;86.33
54172;BME280;40076;52.354;4.970;2022-08-25T02:03:10;101719.97;;;24.13;86.26
54172;BME280;40076;52.354;4.970;2022-08-25T02:05:35;101719.56;;;24.11;85.88
54172;BME280;40076;52.354;4.970;2022-08-25T02:08:01;101723.13;;;24.08;85.33
54172;BME280;40076;52.354;4.970;2022-08-25T02:10:26;101722.31;;;24.08;84.90
54172;BME280;40076;52.354;4.970;2022-08-25T02:12:51;101723.88;;;24.05;85.10
54172;BME280;40076;52.354;4.970;2022-08-25T02:15:17;101719.16;;;24.06;84.95
54172;BME280;40076;52.354;4.970;2022-08-25T02:17:42;101723.09;;;24.05;85.05
54172;BME280;40076;52.354;4.970;2022-08-25T02:20:07;101719.53;;;24.04;84.84
54172;BME280;40076;52.354;4.970;2022-08-25T02:22:33;101722.31;;;24.04;84.90
54172;BME280;40076;52.354;4.970;2022-08-25T02:24:59;101714.44;;;24.03;84.82
54172;BME280;40076;52.354;4.970;2022-08-25T02:27:24;101721.91;;;24.02;84.90
54172;BME280;40076;52.354;4.970;2022-08-25T02:29:49;101717.56;;;24.01;84.77
54172;BME280;40076;52.354;4.970;2022-08-25T02:32:14;101721.13;;;24.02;84.76
54172;BME280;40076;52.354;4.970;2022-08-25T02:34:40;101718.75;;;24.00;84.55
54172;BME280;40076;52.354;4.970;2022-08-25T02:37:05;101713.63;;;23.99;84.89
54172;BME280;40076;52.354;4.970;2022-08-25T02:39:32;101706.50;;;23.98;85.04
54172;BME280;40076;52.354;4.970;2022-08-25T02:41:57;101703.75;;;23.98;84.81
54172;BME280;40076;52.354;4.970;2022-08-25T02:44:23;101716.75;;;23.97;85.31
54172;BME280;40076;52.354;4.970;2022-08-25T02:46:48;101708.84;;;23.96;85.18
54172;BME280;40076;52.354;4.970;2022-08-25T02:49:14;101702.97;;;23.94;85.25
54172;BME280;40076;52.354;4.970;2022-08-25T02:51:39;101706.50;;;23.94;85.31
54172;BME280;40076;52.354;4.970;2022-08-25T02:54:05;101703.34;;;23.92;85.24
54172;BME280;40076;52.354;4.970;2022-08-25T02:56:31;101697.03;;;23.92;84.96
54172;BME280;40076;52.354;4.970;2022-08-25T02:58:59;101693.06;;;23.89;84.34
54172;BME280;40076;52.354;4.970;2022-08-25T03:01:24;101695.44;;;23.87;84.06
54172;BME280;40076;52.354;4.970;2022-08-25T03:03:50;101693.06;;;23.85;83.82
54172;BME280;40076;52.354;4.970;2022-08-25T03:06:18;101693.84;;;23.82;83.61
54172;BME280;40076;52.354;4.970;2022-08-25T03:08:44;101685.56;;;23.82;83.65
54172;BME280;40076;52.354;4.970;2022-08-25T03:11:10;101685.94;;;23.81;83.25
54172;BME280;40076;52.354;4.970;2022-08-25T03:13:36;101682.78;;;23.79;82.81
54172;BME280;40076;52.354;4.970;2022-08-25T03:16:03;101678.84;;;23.76;82.64
54172;BME280;40076;52.354;4.970;2022-08-25T03:18:29;101673.69;;;23.75;82.39
54172;BME280;40076;52.354;4.970;2022-08-25T03:20:55;101670.53;;;23.73;82.09
54172;BME280;40076;52.354;4.970;2022-08-25T03:23:20;101666.22;;;23.72;82.00
54172;BME280;40076;52.354;4.970;2022-08-25T03:25:45;101669.75;;;23.69;81.79
54172;BME280;40076;52.354;4.970;2022-08-25T03:28:30;101665.78;;;23.66;80.62
54172;BME280;40076;52.354;4.970;2022-08-25T03:30:58;101661.84;;;23.64;80.35
54172;BME280;40076;52.354;4.970;2022-08-25T03:33:25;101658.66;;;23.62;79.76
54172;BME280;40076;52.354;4.970;2022-08-25T03:35:50;101655.13;;;23.61;79.22
54172;BME280;40076;52.354;4.970;2022-08-25T03:38:16;101660.63;;;23.61;78.84
54172;BME280;40076;52.354;4.970;2022-08-25T03:40:41;101650.38;;;23.58;78.00
54172;BME280;40076;52.354;4.970;2022-08-25T03:43:07;101646.44;;;23.59;77.76
54172;BME280;40076;52.354;4.970;2022-08-25T03:45:32;101644.84;;;23.58;77.06
54172;BME280;40076;52.354;4.970;2022-08-25T03:47:58;101640.13;;;23.55;76.16
54172;BME280;40076;52.354;4.970;2022-08-25T03:50:23;101642.09;;;23.55;76.02
54172;BME280;40076;52.354;4.970;2022-08-25T03:52:51;101640.50;;;23.54;75.80
54172;BME280;40076;52.354;4.970;2022-08-25T03:55:18;101646.81;;;23.54;75.30
54172;BME280;40076;52.354;4.970;2022-08-25T03:57:43;101640.09;;;23.52;75.14
54172;BME280;40076;52.354;4.970;2022-08-25T04:00:09;101633.41;;;23.49;74.33
54172;BME280;40076;52.354;4.970;2022-08-25T04:02:36;101637.34;;;23.48;74.37
54172;BME280;40076;52.354;4.970;2022-08-25T04:05:02;101632.97;;;23.47;73.84
54172;BME280;40076;52.354;4.970;2022-08-25T04:07:27;101625.88;;;23.46;73.12
54172;BME280;40076;52.354;4.970;2022-08-25T04:09:53;101626.66;;;23.46;73.16
54172;BME280;40076;52.354;4.970;2022-08-25T04:12:19;101619.13;;;23.43;72.67
54172;BME280;40076;52.354;4.970;2022-08-25T04:14:45;101620.31;;;23.42;72.02
54172;BME280;40076;52.354;4.970;2022-08-25T04:17:10;101616.78;;;23.42;71.61
54172;BME280;40076;52.354;4.970;2022-08-25T04:19:36;101617.97;;;23.41;71.43
54172;BME280;40076;52.354;4.970;2022-08-25T04:22:02;101615.22;;;23.41;70.96
54172;BME280;40076;52.354;4.970;2022-08-25T04:24:27;101613.63;;;23.40;70.61
54172;BME280;40076;52.354;4.970;2022-08-25T04:26:53;101615.59;;;23.39;70.13
54172;BME280;40076;52.354;4.970;2022-08-25T04:29:21;101610.47;;;23.38;69.28
54172;BME280;40076;52.354;4.970;2022-08-25T04:31:48;101605.72;;;23.38;68.92
54172;BME280;40076;52.354;4.970;2022-08-25T04:34:18;101607.69;;;23.38;68.19
54172;BME280;40076;52.354;4.970;2022-08-25T04:36:44;101600.59;;;23.37;67.43
54172;BME280;40076;52.354;4.970;2022-08-25T04:39:10;101606.91;;;23.37;67.20
54172;BME280;40076;52.354;4.970;2022-08-25T04:41:36;101608.09;;;23.36;66.85
54172;BME280;40076;52.354;4.970;2022-08-25T04:44:02;101614.38;;;23.37;66.33
54172;BME280;40076;52.354;4.970;2022-08-25T04:46:30;101604.53;;;23.36;66.17
54172;BME280;40076;52.354;4.970;2022-08-25T04:48:57;101601.78;;;23.36;66.17
54172;BME280;40076;52.354;4.970;2022-08-25T04:51:29;101604.16;;;23.34;65.65
54172;BME280;40076;52.354;4.970;2022-08-25T04:53:59;101602.56;;;23.33;65.39
54172;BME280;40076;52.354;4.970;2022-08-25T04:56:25;101606.50;;;23.32;65.05
54172;BME280;40076;52.354;4.970;2022-08-25T04:58:52;101609.63;;;23.30;64.78
54172;BME280;40076;52.354;4.970;2022-08-25T05:01:20;101601.75;;;23.29;64.66
54172;BME280;40076;52.354;4.970;2022-08-25T05:03:47;101605.66;;;23.28;64.40
54172;BME280;40076;52.354;4.970;2022-08-25T05:06:15;101606.09;;;23.26;64.13
54172;BME280;40076;52.354;4.970;2022-08-25T05:08:41;101608.44;;;23.28;64.07
54172;BME280;40076;52.354;4.970;2022-08-25T05:11:08;101610.81;;;23.26;64.07
54172;BME280;40076;52.354;4.970;2022-08-25T05:13:34;101615.13;;;23.27;63.76
54172;BME280;40076;52.354;4.970;2022-08-25T05:16:00;101614.34;;;23.26;64.00
54172;BME280;40076;52.354;4.970;2022-08-25T05:18:29;101623.38;;;23.27;64.09
54172;BME280;40076;52.354;4.970;2022-08-25T05:20:55;101628.16;;;23.26;64.02
54172;BME280;40076;52.354;4.970;2022-08-25T05:23:22;101620.25;;;23.25;63.64
54172;BME280;40076;52.354;4.970;2022-08-25T05:25:50;101622.22;;;23.24;63.60
54172;BME280;40076;52.354;4.970;2022-08-25T05:28:16;101621.84;;;23.26;63.20
54172;BME280;40076;52.354;4.970;2022-08-25T05:30:42;101619.84;;;23.23;62.88
54172;BME280;40076;52.354;4.970;2022-08-25T05:33:09;101617.09;;;23.23;63.00
54172;BME280;40076;52.354;4.970;2022-08-25T05:35:34;101611.16;;;23.21;62.60
54172;BME280;40076;52.354;4.970;2022-08-25T05:38:00;101614.28;;;23.19;62.51
54172;BME280;40076;52.354;4.970;2022-08-25T05:40:26;101619.81;;;23.19;62.38
54172;BME280;40076;52.354;4.970;2022-08-25T05:42:52;101619.41;;;23.21;61.94
54172;BME280;40076;52.354;4.970;2022-08-25T05:45:18;101625.31;;;23.19;61.86
54172;BME280;40076;52.354;4.970;2022-08-25T05:47:43;101627.69;;;23.17;61.48
54172;BME280;40076;52.354;4.970;2022-08-25T05:50:09;101625.31;;;23.19;61.32
54172;BME280;40076;52.354;4.970;2022-08-25T05:52:35;101632.03;;;23.18;61.53
54172;BME280;40076;52.354;4.970;2022-08-25T05:55:00;101632.03;;;23.18;61.94
54172;BME280;40076;52.354;4.970;2022-08-25T05:57:26;101631.25;;;23.18;61.69
54172;BME280;40076;52.354;4.970;2022-08-25T05:59:51;101624.53;;;23.15;61.40
54172;BME280;40076;52.354;4.970;2022-08-25T06:02:16;101621.75;;;23.15;61.38
54172;BME280;40076;52.354;4.970;2022-08-25T06:05:00;101627.66;;;23.14;61.43
54172;BME280;40076;52.354;4.970;2022-08-25T06:07:26;101618.59;;;23.09;61.71
54172;BME280;40076;52.354;4.970;2022-08-25T06:09:51;101620.94;;;23.07;61.44
54172;BME280;40076;52.354;4.970;2022-08-25T06:12:17;101616.97;;;23.05;61.67
54172;BME280;40076;52.354;4.970;2022-08-25T06:14:45;101629.97;;;23.04;61.31
54172;BME280;40076;52.354;4.970;2022-08-25T06:17:10;101627.19;;;23.04;61.22
54172;BME280;40076;52.354;4.970;2022-08-25T06:19:35;101629.97;;;23.04;61.33
54172;BME280;40076;52.354;4.970;2022-08-25T06:22:01;101628.41;;;23.03;61.42
54172;BME280;40076;52.354;4.970;2022-08-25T06:24:27;101620.13;;;23.03;61.34
54172;BME280;40076;52.354;4.970;2022-08-25T06:26:53;101617.75;;;23.02;61.30
54172;BME280;40076;52.354;4.970;2022-08-25T06:29:19;101618.56;;;23.02;61.31
54172;BME280;40076;52.354;4.970;2022-08-25T06:31:45;101616.97;;;23.01;60.69
54172;BME280;40076;52.354;4.970;2022-08-25T06:34:11;101619.34;;;23.03;60.58
54172;BME280;40076;52.354;4.970;2022-08-25T06:36:38;101618.13;;;23.04;60.66
54172;BME280;40076;52.354;4.970;2022-08-25T06:39:03;101618.94;;;23.04;60.93
54172;BME280;40076;52.354;4.970;2022-08-25T06:41:28;101628.00;;;23.05;60.51
54172;BME280;40076;52.354;4.970;2022-08-25T06:43:54;101630.75;;;23.05;60.37
54172;BME280;40076;52.354;4.970;2022-08-25T06:46:22;101615.38;;;23.04;60.25
54172;BME280;40076;52.354;4.970;2022-08-25T06:48:48;101616.97;;;23.05;60.09
54172;BME280;40076;52.354;4.970;2022-08-25T06:51:16;101614.22;;;23.05;60.32
54172;BME280;40076;52.354;4.970;2022-08-25T06:53:43;101615.00;;;23.05;60.17
54172;BME280;40076;52.354;4.970;2022-08-25T06:56:12;101613.03;;;23.06;60.20
54172;BME280;40076;52.354;4.970;2022-08-25T06:58:38;101621.72;;;23.08;60.39
54172;BME280;40076;52.354;4.970;2022-08-25T07:01:12;101615.84;;;23.09;60.46
54172;BME280;40076;52.354;4.970;2022-08-25T07:03:38;101610.69;;;23.12;60.41
54172;BME280;40076;52.354;4.970;2022-08-25T07:06:04;101615.03;;;23.13;60.09
54172;BME280;40076;52.354;4.970;2022-08-25T07:08:30;101617.84;;;23.16;60.16
54172;BME280;40076;52.354;4.970;2022-08-25T07:10:57;101620.22;;;23.18;60.24
54172;BME280;40076;52.354;4.970;2022-08-25T07:13:22;101620.22;;;23.21;59.91
54172;BME280;40076;52.354;4.970;2022-08-25T07:15:52;101619.47;;;23.24;60.01
54172;BME280;40076;52.354;4.970;2022-08-25T07:18:18;101613.94;;;23.28;60.09
54172;BME280;40076;52.354;4.970;2022-08-25T07:20:44;101622.66;;;23.33;59.94
54172;BME280;40076;52.354;4.970;2022-08-25T07:23:09;101619.53;;;23.38;59.94
54172;BME280;40076;52.354;4.970;2022-08-25T07:25:35;101613.63;;;23.43;59.35
54172;BME280;40076;52.354;4.970;2022-08-25T07:28:00;101615.28;;;23.48;59.21
54172;BME280;40076;52.354;4.970;2022-08-25T07:30:25;101622.78;;;23.55;59.39
54172;BME280;40076;52.354;4.970;2022-08-25T07:32:51;101616.09;;;23.59;59.06
54172;BME280;40076;52.354;4.970;2022-08-25T07:35:17;101611.75;;;23.65;58.64
54172;BME280;40076;52.354;4.970;2022-08-25T07:37:49;101611.41;;;23.70;58.22
54172;BME280;40076;52.354;4.970;2022-08-25T07:40:23;101611.81;;;23.76;58.16
54172;BME280;40076;52.354;4.970;2022-08-25T07:42:52;101611.03;;;23.82;57.74
54172;BME280;40076;52.354;4.970;2022-08-25T07:45:18;101616.56;;;23.90;57.70
54172;BME280;40076;52.354;4.970;2022-08-25T07:47:44;101610.28;;;23.96;57.34
54172;BME280;40076;52.354;4.970;2022-08-25T07:50:11;101602.41;;;24.02;57.27
54172;BME280;40076;52.354;4.970;2022-08-25T07:52:39;101603.22;;;24.09;57.27
54172;BME280;40076;52.354;4.970;2022-08-25T07:55:05;101592.56;;;24.15;57.51
54172;BME280;40076;52.354;4.970;2022-08-25T07:57:32;101598.13;;;24.22;57.43
54172;BME280;40076;52.354;4.970;2022-08-25T07:59:58;101598.50;;;24.28;56.98
54172;BME280;40076;52.354;4.970;2022-08-25T08:02:24;101603.66;;;24.33;56.85
54172;BME280;40076;52.354;4.970;2022-08-25T08:04:51;101598.53;;;24.38;56.66
54172;BME280;40076;52.354;4.970;2022-08-25T08:07:19;101606.81;;;24.45;56.56
54172;BME280;40076;52.354;4.970;2022-08-25T08:09:45;101600.88;;;24.50;56.51
54172;BME280;40076;52.354;4.970;2022-08-25T08:12:10;101608.38;;;24.57;56.54
54172;BME280;40076;52.354;4.970;2022-08-25T08:14:36;101603.66;;;24.61;56.16
54172;BME280;40076;52.354;4.970;2022-08-25T08:17:06;101609.56;;;24.67;55.79
54172;BME280;40076;52.354;4.970;2022-08-25T08:19:33;101597.34;;;24.71;55.57
54172;BME280;40076;52.354;4.970;2022-08-25T08:21:59;101597.72;;;24.77;55.50
54172;BME280;40076;52.354;4.970;2022-08-25T08:24:24;101603.22;;;24.84;55.33
54172;BME280;40076;52.354;4.970;2022-08-25T08:26:49;101589.44;;;24.91;55.46
54172;BME280;40076;52.354;4.970;2022-08-25T08:29:15;101584.28;;;24.96;54.63
54172;BME280;40076;52.354;4.970;2022-08-25T08:31:40;101592.53;;;25.04;54.46
54172;BME280;40076;52.354;4.970;2022-08-25T08:34:06;101584.22;;;25.11;53.84
54172;BME280;40076;52.354;4.970;2022-08-25T08:36:31;101583.44;;;25.17;53.76
54172;BME280;40076;52.354;4.970;2022-08-25T08:38:57;101585.78;;;25.22;53.81
54172;BME280;40076;52.354;4.970;2022-08-25T08:53:01;101584.81;;;25.57;52.89
54172;BME280;40076;52.354;4.970;2022-08-25T08:55:34;101587.22;;;25.62;52.79
54172;BME280;40076;52.354;4.970;2022-08-25T08:58:04;101582.03;;;25.68;52.64
54172;BME280;40076;52.354;4.970;2022-08-25T09:00:32;101582.00;;;25.75;52.23
54172;BME280;40076;52.354;4.970;2022-08-25T09:03:05;101575.63;;;25.82;52.04
54172;BME280;40076;52.354;4.970;2022-08-25T09:05:43;101576.38;;;25.89;51.87
54172;BME280;40076;52.354;4.970;2022-08-25T09:08:12;101582.25;;;25.95;52.16
54172;BME280;40076;52.354;4.970;2022-08-25T09:11:00;101583.38;;;26.04;52.17
54172;BME280;40076;52.354;4.970;2022-08-25T09:13:56;101578.97;;;26.10;51.93
54172;BME280;40076;52.354;4.970;2022-08-25T09:16:53;101583.69;;;26.17;52.13
54172;BME280;40076;52.354;4.970;2022-08-25T09:22:08;101585.22;;;26.29;51.85
54172;BME280;40076;52.354;4.970;2022-08-25T09:25:07;101579.22;;;26.37;51.68
54172;BME280;40076;52.354;4.970;2022-08-25T09:27:54;101582.72;;;26.45;51.43
54172;BME280;40076;52.354;4.970;2022-08-25T09:30:22;101579.88;;;26.52;50.87
54172;BME280;40076;52.354;4.970;2022-08-25T09:32:51;101577.81;;;26.60;50.51
54172;BME280;40076;52.354;4.970;2022-08-25T09:35:32;101574.56;;;26.68;50.96
54172;BME280;40076;52.354;4.970;2022-08-25T09:38:01;101577.69;;;26.74;50.90
54172;BME280;40076;52.354;4.970;2022-08-25T09:40:30;101574.03;;;26.80;49.86
54172;BME280;40076;52.354;4.970;2022-08-25T09:42:58;101575.94;;;26.91;49.98
54172;BME280;40076;52.354;4.970;2022-08-25T09:45:35;101567.94;;;27.00;50.09
54172;BME280;40076;52.354;4.970;2022-08-25T09:48:29;101567.78;;;27.10;49.47
54172;BME280;40076;52.354;4.970;2022-08-25T09:54:03;101557.69;;;27.27;48.44
54172;BME280;40076;52.354;4.970;2022-08-25T09:56:32;101561.16;;;27.35;48.35
54172;BME280;40076;52.354;4.970;2022-08-25T09:59:27;101564.59;;;27.46;48.40
54172;BME280;40076;52.354;4.970;2022-08-25T10:01:55;101558.16;;;27.52;48.57
54172;BME280;40076;52.354;4.970;2022-08-25T10:04:47;101550.88;;;27.62;48.73
54172;BME280;40076;52.354;4.970;2022-08-25T10:09:55;101549.22;;;27.68;47.84
54172;BME280;40076;52.354;4.970;2022-08-25T10:12:28;101542.41;;;27.73;47.50
54172;BME280;40076;52.354;4.970;2022-08-25T10:14:54;101543.50;;;27.79;47.45
54172;BME280;40076;52.354;4.970;2022-08-25T10:20:12;101545.19;;;27.99;46.54
54172;BME280;40076;52.354;4.970;2022-08-25T10:22:39;101538.72;;;28.06;45.27
54172;BME280;40076;52.354;4.970;2022-08-25T10:25:07;101532.22;;;28.16;44.37
54172;BME280;40076;52.354;4.970;2022-08-25T10:30:19;101534.66;;;28.37;44.75
54172;BME280;40076;52.354;4.970;2022-08-25T10:38:12;101534.25;;;28.59;42.24
54172;BME280;40076;52.354;4.970;2022-08-25T10:40:47;101520.22;;;28.66;42.87
54172;BME280;40076;52.354;4.970;2022-08-25T10:45:51;101511.63;;;28.80;41.92
54172;BME280;40076;52.354;4.970;2022-08-25T10:50:52;101509.75;;;28.93;41.97
54172;BME280;40076;52.354;4.970;2022-08-25T10:53:27;101502.06;;;29.01;42.05
54172;BME280;40076;52.354;4.970;2022-08-25T10:56:11;101504.25;;;29.09;40.91
54172;BME280;40076;52.354;4.970;2022-08-25T11:04:01;101488.66;;;29.32;39.54
54172;BME280;40076;52.354;4.970;2022-08-25T11:06:41;101488.19;;;29.37;39.51
54172;BME280;40076;52.354;4.970;2022-08-25T11:09:14;101484.88;;;29.42;38.95
54172;BME280;40076;52.354;4.970;2022-08-25T11:11:52;101479.94;;;29.49;38.49
54172;BME280;40076;52.354;4.970;2022-08-25T11:14:25;101479.84;;;29.53;37.85
54172;BME280;40076;52.354;4.970;2022-08-25T11:17:02;101478.56;;;29.58;37.60
54172;BME280;40076;52.354;4.970;2022-08-25T11:19:38;101467.69;;;29.63;37.66
54172;BME280;40076;52.354;4.970;2022-08-25T11:22:20;101472.38;;;29.66;36.25
54172;BME280;40076;52.354;4.970;2022-08-25T11:27:21;101470.63;;;29.72;36.27
54172;BME280;40076;52.354;4.970;2022-08-25T11:30:03;101467.69;;;29.79;35.90
54172;BME280;40076;52.354;4.970;2022-08-25T11:32:31;101469.16;;;29.84;35.43
54172;BME280;40076;52.354;4.970;2022-08-25T11:35:01;101463.06;;;29.89;35.59
54172;BME280;40076;52.354;4.970;2022-08-25T11:37:28;101465.34;;;29.94;33.96
54172;BME280;40076;52.354;4.970;2022-08-25T11:40:25;101474.41;;;29.98;34.15
54172;BME280;40076;52.354;4.970;2022-08-25T11:45:43;101471.53;;;30.02;33.70
54172;BME280;40076;52.354;4.970;2022-08-25T11:53:38;101466.78;;;30.15;33.67
54172;BME280;40076;52.354;4.970;2022-08-25T11:56:10;101453.44;;;30.22;34.25
54172;BME280;40076;52.354;4.970;2022-08-25T11:58:40;101456.81;;;30.30;34.01
54172;BME280;40076;52.354;4.970;2022-08-25T12:04:30;101446.53;;;30.43;34.56
54172;BME280;40076;52.354;4.970;2022-08-25T12:12:28;101451.28;;;30.59;34.54
54172;BME280;40076;52.354;4.970;2022-08-25T12:14:54;101445.59;;;30.62;34.37
54172;BME280;40076;52.354;4.970;2022-08-25T12:17:23;101443.03;;;30.68;34.48
54172;BME280;40076;52.354;4.970;2022-08-25T12:19:56;101441.38;;;30.71;34.91
54172;BME280;40076;52.354;4.970;2022-08-25T12:27:31;101449.69;;;30.87;34.80
54172;BME280;40076;52.354;4.970;2022-08-25T12:30:30;101454.59;;;30.95;34.79
54172;BME280;40076;52.354;4.970;2022-08-25T12:33:24;101446.91;;;30.99;34.64
54172;BME280;40076;52.354;4.970;2022-08-25T12:35:58;101452.38;;;31.03;34.01
54172;BME280;40076;52.354;4.970;2022-08-25T12:38:44;101440.69;;;31.08;34.35
54172;BME280;40076;52.354;4.970;2022-08-25T12:41:13;101440.25;;;31.10;33.62
54172;BME280;40076;52.354;4.970;2022-08-25T12:43:42;101434.66;;;31.10;33.53
54172;BME280;40076;52.354;4.970;2022-08-25T12:46:36;101433.66;;;31.16;34.10
54172;BME280;40076;52.354;4.970;2022-08-25T12:56:43;101431.53;;;31.33;33.12
54172;BME280;40076;52.354;4.970;2022-08-25T12:59:24;101423.03;;;31.36;33.00
54172;BME280;40076;52.354;4.970;2022-08-25T13:13:37;101426.81;;;31.55;32.60
54172;BME280;40076;52.354;4.970;2022-08-25T13:16:07;101412.41;;;31.57;32.80
54172;BME280;40076;52.354;4.970;2022-08-25T13:18:36;101429.03;;;31.60;32.47
54172;BME280;40076;52.354;4.970;2022-08-25T13:21:07;101413.50;;;31.59;31.93
54172;BME280;40076;52.354;4.970;2022-08-25T13:23:40;101408.28;;;31.61;32.03
54172;BME280;40076;52.354;4.970;2022-08-25T13:26:06;101408.50;;;31.67;31.86
54172;BME280;40076;52.354;4.970;2022-08-25T13:28:36;101415.19;;;31.69;31.10
54172;BME280;40076;52.354;4.970;2022-08-25T13:31:07;101416.31;;;31.72;31.33
54172;BME280;40076;52.354;4.970;2022-08-25T13:33:33;101410.59;;;31.75;31.20
54172;BME280;40076;52.354;4.970;2022-08-25T13:35:59;101413.72;;;31.77;31.16
54172;BME280;40076;52.354;4.970;2022-08-25T13:38:45;101403.66;;;31.80;31.17
54172;BME280;40076;52.354;4.970;2022-08-25T13:41:16;101403.53;;;31.83;31.14
54172;BME280;40076;52.354;4.970;2022-08-25T13:43:42;101408.56;;;31.89;30.73
54172;BME280;40076;52.354;4.970;2022-08-25T13:46:07;101393.66;;;31.92;30.00
54172;BME280;40076;52.354;4.970;2022-08-25T13:48:34;101392.00;;;31.94;30.02
54172;BME280;40076;52.354;4.970;2022-08-25T13:51:15;101390.75;;;31.95;30.42
54172;BME280;40076;52.354;4.970;2022-08-25T13:53:47;101389.06;;;31.98;30.45
54172;BME280;40076;52.354;4.970;2022-08-25T13:56:23;101384.59;;;32.00;30.42
54172;BME280;40076;52.354;4.970;2022-08-25T13:58:49;101377.31;;;32.03;30.31
54172;BME280;40076;52.354;4.970;2022-08-25T14:01:26;101382.44;;;32.04;30.93
54172;BME280;40076;52.354;4.970;2022-08-25T14:03:54;101378.75;;;32.07;30.34
54172;BME280;40076;52.354;4.970;2022-08-25T14:06:23;101377.84;;;32.10;31.13
54172;BME280;40076;52.354;4.970;2022-08-25T14:11:41;101385.56;;;32.19;30.78
54172;BME280;40076;52.354;4.970;2022-08-25T14:14:28;101378.69;;;32.20;30.09
54172;BME280;40076;52.354;4.970;2022-08-25T14:17:03;101372.66;;;32.22;30.11
54172;BME280;40076;52.354;4.970;2022-08-25T14:19:29;101376.13;;;32.26;30.61
54172;BME280;40076;52.354;4.970;2022-08-25T14:21:56;101375.63;;;32.27;30.34
54172;BME280;40076;52.354;4.970;2022-08-25T14:24:26;101368.69;;;32.32;30.41
54172;BME280;40076;52.354;4.970;2022-08-25T14:26:52;101366.53;;;32.36;30.54
54172;BME280;40076;52.354;4.970;2022-08-25T14:29:17;101364.06;;;32.38;30.31
54172;BME280;40076;52.354;4.970;2022-08-25T14:31:44;101370.00;;;32.40;29.74
54172;BME280;40076;52.354;4.970;2022-08-25T14:34:16;101359.44;;;32.44;29.94
54172;BME280;40076;52.354;4.970;2022-08-25T14:36:42;101367.72;;;32.47;29.56